createdAt,value
2024-03-18T00:02:08.243Z,6.18
2024-03-18T00:04:40.573Z,6.16
2024-03-18T00:07:12.748Z,6.16
2024-03-18T00:09:44.846Z,6.15
2024-03-18T00:12:17.180Z,6.15
2024-03-18T00:14:50.347Z,6.15
2024-03-18T00:17:22.926Z,6.13
2024-03-18T00:19:55.231Z,6.15
2024-03-18T00:22:27.248Z,6.15
2024-03-18T00:24:59.813Z,6.17
2024-03-18T00:27:32.595Z,6.15
2024-03-18T00:30:07.587Z,6.15
2024-03-18T00:32:44.332Z,6.13
2024-03-18T00:35:17.316Z,6.13
2024-03-18T00:37:50.405Z,6.12
2024-03-18T00:40:22.468Z,6.10
2024-03-18T00:42:54.535Z,6.11
2024-03-18T00:45:27.674Z,6.11
2024-03-18T00:47:59.802Z,6.10
2024-03-18T00:50:32.450Z,6.11
2024-03-18T00:53:04.633Z,6.09
2024-03-18T00:55:37.334Z,6.07
2024-03-18T00:58:09.895Z,6.05
2024-03-18T01:00:42.760Z,6.02
2024-03-18T01:03:14.850Z,6.01
2024-03-18T01:05:47.123Z,5.97
2024-03-18T01:08:19.215Z,5.95
2024-03-18T01:10:51.387Z,5.94
2024-03-18T01:13:24.281Z,5.95
2024-03-18T01:15:56.533Z,5.92
2024-03-18T01:18:29.661Z,5.89
2024-03-18T01:21:01.739Z,5.85
2024-03-18T01:23:34.022Z,5.83
2024-03-18T01:26:06.462Z,5.82
2024-03-18T01:28:39.163Z,5.81
2024-03-18T01:31:11.650Z,5.78
2024-03-18T01:33:43.705Z,5.77
2024-03-18T01:36:15.770Z,5.76
2024-03-18T01:38:47.933Z,5.74
2024-03-18T01:41:21.539Z,5.72
2024-03-18T01:43:53.819Z,5.70
2024-03-18T01:46:26.350Z,5.69
2024-03-18T01:48:58.442Z,5.68
2024-03-18T01:51:33.022Z,5.66
2024-03-18T01:54:05.770Z,5.65
2024-03-18T01:56:37.789Z,5.63
2024-03-18T01:59:11.981Z,5.61
2024-03-18T02:01:43.552Z,5.60
2024-03-18T02:04:16.955Z,5.80
2024-03-18T02:06:49.397Z,5.64
2024-03-18T02:09:21.775Z,5.63
2024-03-18T02:11:57.160Z,5.62
2024-03-18T02:14:29.188Z,5.63
2024-03-18T02:17:01.239Z,5.63
2024-03-18T02:19:34.196Z,5.63
2024-03-18T02:22:10.574Z,5.64
2024-03-18T02:24:44.168Z,5.65
2024-03-18T02:27:16.995Z,5.68
2024-03-18T02:29:49.668Z,5.66
2024-03-18T02:32:21.956Z,5.67
2024-03-18T02:34:55.315Z,5.66
2024-03-18T02:37:27.945Z,5.65
2024-03-18T02:40:01.643Z,5.66
2024-03-18T02:42:33.769Z,5.65
2024-03-18T02:45:10.224Z,5.66
2024-03-18T02:47:44.123Z,5.64
2024-03-18T02:50:20.059Z,5.63
2024-03-18T02:52:52.579Z,5.63
2024-03-18T02:55:26.628Z,5.62
2024-03-18T02:57:58.716Z,5.61
2024-03-18T03:00:31.209Z,5.60
2024-03-18T03:03:04.320Z,5.58
2024-03-18T03:05:36.588Z,5.60
2024-03-18T03:08:09.455Z,5.60
2024-03-18T03:10:42.230Z,5.60
2024-03-18T03:13:14.611Z,5.58
2024-03-18T03:15:46.800Z,5.57
2024-03-18T03:18:19.597Z,5.57
2024-03-18T03:20:58.616Z,5.56
2024-03-18T03:23:31.589Z,5.56
2024-03-18T03:26:04.597Z,5.55
2024-03-18T03:28:37.414Z,5.54
2024-03-18T03:31:10.742Z,5.56
2024-03-18T03:33:43.637Z,5.53
2024-03-18T03:36:16.306Z,5.53
2024-03-18T03:38:49.504Z,5.53
2024-03-18T03:41:22.525Z,5.52
2024-03-18T03:43:55.984Z,5.51
2024-03-18T03:46:29.138Z,5.53
2024-03-18T03:49:02.250Z,5.55
2024-03-18T03:51:35.126Z,5.56
2024-03-18T03:54:08.461Z,5.55
2024-03-18T03:56:41.494Z,5.54
2024-03-18T03:59:14.174Z,5.56
2024-03-18T04:01:47.280Z,5.56
2024-03-18T04:04:20.148Z,5.57
2024-03-18T04:06:53.634Z,5.60
2024-03-18T04:09:26.433Z,5.60
2024-03-18T04:11:59.181Z,5.64
2024-03-18T04:14:32.004Z,5.67
2024-03-18T04:17:06.731Z,5.72
2024-03-18T04:19:39.891Z,5.76
2024-03-18T04:22:13.362Z,5.81
2024-03-18T04:24:46.352Z,5.85
2024-03-18T04:27:19.309Z,5.89
2024-03-18T04:29:53.090Z,5.91
2024-03-18T04:32:25.685Z,5.95
2024-03-18T04:34:58.267Z,6.01
2024-03-18T04:37:31.308Z,6.06
2024-03-18T04:40:06.473Z,6.13
2024-03-18T04:42:38.996Z,6.19
2024-03-18T04:45:13.543Z,6.22
2024-03-18T04:47:47.028Z,6.28
2024-03-18T04:50:21.741Z,6.51
2024-03-18T04:52:57.295Z,6.44
2024-03-18T04:55:30.273Z,6.48
2024-03-18T04:58:03.084Z,6.51
2024-03-18T05:00:36.070Z,6.56
2024-03-18T05:03:09.504Z,6.60
2024-03-18T05:05:43.123Z,6.65
2024-03-18T05:08:17.268Z,6.69
2024-03-18T05:10:50.356Z,6.73
2024-03-18T05:13:24.016Z,6.76
2024-03-18T05:15:56.806Z,6.80
2024-03-18T05:18:29.658Z,6.83
2024-03-18T05:21:02.014Z,6.86
2024-03-18T05:23:36.961Z,6.89
2024-03-18T05:26:09.610Z,6.93
2024-03-18T05:28:46.869Z,6.95
2024-03-18T05:31:21.393Z,6.98
2024-03-18T05:33:54.629Z,7.00
2024-03-18T05:36:27.653Z,7.05
2024-03-18T05:39:00.931Z,7.12
2024-03-18T05:41:33.917Z,7.15
2024-03-18T05:44:06.847Z,7.17
2024-03-18T05:46:40.278Z,7.20
2024-03-18T05:49:13.133Z,7.22
2024-03-18T05:51:46.662Z,7.27
2024-03-18T05:54:22.296Z,7.29
2024-03-18T05:56:55.026Z,7.34
2024-03-18T05:59:27.337Z,7.35
2024-03-18T06:02:01.219Z,7.38
2024-03-18T06:04:34.071Z,7.39
2024-03-18T06:07:07.568Z,7.41
2024-03-18T06:09:40.114Z,7.40
2024-03-18T06:12:12.623Z,7.35
2024-03-18T06:14:44.890Z,7.44
2024-03-18T06:17:17.775Z,7.43
2024-03-18T06:19:52.709Z,7.44
2024-03-18T06:22:28.250Z,7.46
2024-03-18T06:25:20.702Z,7.48
2024-03-18T06:27:53.928Z,7.52
2024-03-18T06:30:26.938Z,7.56
2024-03-18T06:33:00.969Z,7.59
2024-03-18T06:35:34.318Z,7.62
2024-03-18T06:38:07.741Z,7.68
2024-03-18T06:40:43.784Z,7.74
2024-03-18T06:43:18.780Z,7.79
2024-03-18T06:45:52.652Z,7.85
2024-03-18T06:48:26.916Z,7.89
2024-03-18T06:50:59.205Z,7.91
2024-03-18T06:53:33.124Z,7.93
2024-03-18T06:56:08.751Z,7.94
2024-03-18T06:58:41.810Z,7.97
2024-03-18T07:01:14.909Z,8.01
2024-03-18T07:03:48.173Z,8.08
2024-03-18T07:06:21.313Z,8.13
2024-03-18T07:08:54.474Z,8.18
2024-03-18T07:11:28.908Z,8.21
2024-03-18T07:14:03.187Z,8.25
2024-03-18T07:16:35.938Z,8.31
2024-03-18T07:19:08.960Z,8.38
2024-03-18T07:21:41.448Z,8.39
2024-03-18T07:24:16.718Z,8.40
2024-03-18T07:26:50.807Z,8.41
2024-03-18T07:29:24.231Z,8.44
2024-03-18T07:31:58.098Z,8.50
2024-03-18T07:34:32.710Z,8.56
2024-03-18T07:37:05.850Z,8.58
2024-03-18T07:39:38.746Z,8.64
2024-03-18T07:42:12.988Z,8.70
2024-03-18T07:44:48.540Z,8.75
2024-03-18T07:47:21.964Z,8.82
2024-03-18T07:49:54.939Z,8.92
2024-03-18T07:52:27.853Z,9.01
2024-03-18T07:55:03.063Z,9.09
2024-03-18T07:57:38.223Z,9.19
2024-03-18T08:00:13.111Z,9.23
2024-03-18T08:02:46.299Z,9.27
2024-03-18T08:05:20.010Z,9.28
2024-03-18T08:07:56.944Z,9.32
2024-03-18T08:10:30.179Z,9.36
2024-03-18T08:13:03.628Z,9.44
2024-03-18T08:15:38.792Z,9.47
2024-03-18T08:18:12.814Z,9.56
2024-03-18T08:20:45.841Z,9.68
2024-03-18T08:23:18.884Z,9.79
2024-03-18T08:25:52.558Z,9.84
2024-03-18T08:28:27.455Z,9.92
2024-03-18T08:31:02.005Z,9.99
2024-03-18T08:33:56.033Z,10.08
2024-03-18T08:36:11.395Z,10.14
2024-03-18T08:38:45.021Z,10.20
2024-03-18T08:41:19.562Z,10.23
2024-03-18T08:43:52.579Z,10.28
2024-03-18T08:46:25.791Z,10.39
2024-03-18T08:48:58.589Z,10.46
2024-03-18T08:51:31.279Z,10.58
2024-03-18T08:54:04.649Z,10.61
2024-03-18T08:56:38.596Z,10.66
2024-03-18T08:59:13.090Z,10.65
2024-03-18T09:01:45.649Z,10.68
2024-03-18T09:04:20.492Z,10.76
2024-03-18T09:06:55.017Z,10.82
2024-03-18T09:09:28.691Z,10.84
2024-03-18T09:12:05.156Z,10.89
2024-03-18T09:14:38.679Z,10.94
2024-03-18T09:17:11.542Z,10.98
2024-03-18T09:19:45.014Z,11.05
2024-03-18T09:22:17.835Z,11.11
2024-03-18T09:24:50.769Z,11.17
2024-03-18T09:27:23.233Z,11.24
2024-03-18T09:29:56.200Z,11.23
2024-03-18T09:32:29.447Z,11.23
2024-03-18T09:35:04.240Z,11.22
2024-03-18T09:37:37.753Z,11.16
2024-03-18T09:40:12.499Z,11.11
2024-03-18T09:42:46.248Z,10.95
2024-03-18T09:45:22.382Z,10.83
2024-03-18T09:47:55.304Z,10.76
2024-03-18T09:50:30.535Z,11.04
2024-03-18T09:53:06.100Z,10.76
2024-03-18T09:55:41.837Z,10.72
2024-03-18T09:58:22.585Z,10.64
2024-03-18T10:00:56.542Z,10.56
2024-03-18T10:03:31.144Z,10.49
2024-03-18T10:06:05.465Z,10.41
2024-03-18T10:08:38.954Z,10.30
2024-03-18T10:11:16.775Z,10.23
2024-03-18T10:13:49.756Z,10.19
2024-03-18T10:16:24.508Z,10.11
2024-03-18T10:18:58.742Z,9.97
2024-03-18T10:21:33.274Z,9.92
2024-03-18T10:24:08.018Z,9.89
2024-03-18T10:26:42.514Z,9.76
2024-03-18T10:29:16.299Z,9.63
2024-03-18T10:31:49.377Z,9.52
2024-03-18T10:34:23.652Z,9.39
2024-03-18T10:37:00.005Z,9.24
2024-03-18T10:39:52.117Z,9.07
2024-03-18T10:42:26.669Z,8.91
2024-03-18T10:45:07.769Z,8.80
2024-03-18T10:47:40.562Z,8.67
2024-03-18T10:50:19.239Z,8.60
2024-03-18T10:52:53.642Z,8.53
2024-03-18T10:55:28.969Z,8.53
2024-03-18T10:58:04.291Z,8.53
2024-03-18T11:00:40.997Z,8.44
2024-03-18T11:03:18.183Z,8.34
2024-03-18T11:05:54.642Z,8.17
2024-03-18T11:08:30.041Z,8.06
2024-03-18T11:11:02.128Z,8.03
2024-03-18T11:13:37.789Z,8.25
2024-03-18T11:16:13.843Z,8.08
2024-03-18T11:18:49.875Z,8.14
2024-03-18T11:21:24.955Z,8.24
2024-03-18T11:24:04.673Z,8.36
2024-03-18T11:26:41.888Z,8.46
2024-03-18T11:29:15.800Z,8.54
2024-03-18T11:31:52.825Z,8.61
2024-03-18T11:34:27.023Z,8.66
2024-03-18T11:37:02.291Z,8.68
2024-03-18T11:39:39.244Z,8.73
2024-03-18T11:42:14.090Z,8.79
2024-03-18T11:44:53.751Z,8.90
2024-03-18T11:47:27.656Z,8.99
2024-03-18T11:50:08.789Z,9.13
2024-03-18T11:52:47.226Z,9.27
2024-03-18T11:55:20.413Z,9.35
2024-03-18T11:57:53.272Z,9.39
2024-03-18T12:00:26.196Z,9.42
2024-03-18T12:02:59.377Z,9.44
2024-03-18T12:05:33.675Z,9.39
2024-03-18T12:08:10.854Z,9.33
2024-03-18T12:10:44.466Z,9.21
2024-03-18T12:13:18.553Z,9.10
2024-03-18T12:16:10.042Z,9.00
2024-03-18T12:18:45.044Z,8.92
2024-03-18T12:21:18.438Z,8.82
2024-03-18T12:24:08.728Z,8.77
2024-03-18T12:26:49.347Z,8.72
2024-03-18T12:29:25.875Z,8.68
2024-03-18T12:32:00.738Z,8.63
2024-03-18T12:34:35.187Z,8.54
2024-03-18T12:37:09.316Z,8.47
2024-03-18T12:39:42.561Z,8.39
2024-03-18T12:42:16.784Z,8.31
2024-03-18T12:44:49.834Z,8.29
2024-03-18T12:47:22.552Z,8.28
2024-03-18T12:49:56.889Z,8.29
2024-03-18T12:52:30.295Z,8.28
2024-03-18T12:55:02.694Z,8.32
2024-03-18T12:57:37.035Z,8.33
2024-03-18T13:00:12.476Z,8.34
2024-03-18T13:02:44.824Z,8.37
2024-03-18T13:05:17.266Z,8.40
2024-03-18T13:07:50.308Z,8.43
2024-03-18T13:10:23.439Z,8.46
2024-03-18T13:12:56.462Z,8.43
2024-03-18T13:15:29.147Z,8.45
2024-03-18T13:18:01.915Z,8.45
2024-03-18T13:20:35.968Z,8.41
2024-03-18T13:23:11.392Z,8.40
2024-03-18T13:25:45.195Z,8.35
2024-03-18T13:28:19.379Z,8.28
2024-03-18T13:30:52.897Z,8.22
2024-03-18T13:33:25.706Z,8.15
2024-03-18T13:36:00.286Z,8.08
2024-03-18T13:38:34.184Z,8.03
2024-03-18T13:41:11.259Z,8.00
2024-03-18T13:43:45.715Z,7.95
2024-03-18T13:46:21.719Z,7.98
2024-03-18T13:48:55.278Z,8.02
2024-03-18T13:51:28.753Z,8.03
2024-03-18T13:54:02.614Z,8.09
2024-03-18T13:56:36.979Z,8.13
2024-03-18T13:59:31.348Z,8.16
2024-03-18T14:02:05.852Z,8.22
2024-03-18T14:04:39.080Z,8.27
2024-03-18T14:07:13.314Z,8.30
2024-03-18T14:09:46.437Z,8.32
2024-03-18T14:12:20.954Z,8.28
2024-03-18T14:14:54.894Z,8.24
2024-03-18T14:17:27.943Z,8.22
2024-03-18T14:20:01.663Z,8.19
2024-03-18T14:22:35.426Z,8.14
2024-03-18T14:25:15.540Z,8.08
2024-03-18T14:28:07.894Z,8.05
2024-03-18T14:30:51.863Z,7.99
2024-03-18T14:33:25.004Z,7.91
2024-03-18T14:35:59.556Z,7.87
2024-03-18T14:38:33.580Z,7.84
2024-03-18T14:41:12.176Z,7.81
2024-03-18T14:43:45.343Z,7.99
2024-03-18T14:46:19.908Z,7.76
2024-03-18T14:48:55.613Z,7.68
2024-03-18T14:51:30.501Z,7.59
2024-03-18T14:54:05.861Z,7.54
2024-03-18T14:56:39.818Z,7.50
2024-03-18T14:59:13.593Z,7.45
2024-03-18T15:01:47.753Z,7.42
2024-03-18T15:04:21.677Z,7.35
2024-03-18T15:06:56.916Z,7.30
2024-03-18T15:09:30.812Z,7.23
2024-03-18T15:12:04.878Z,7.19
2024-03-18T15:14:40.023Z,7.16
2024-03-18T15:17:50.794Z,7.10
2024-03-18T15:20:24.251Z,7.08
2024-03-18T15:22:59.820Z,7.05
2024-03-18T15:25:55.039Z,7.00
2024-03-18T15:28:28.197Z,6.99
2024-03-18T15:31:08.867Z,6.97
2024-03-18T15:33:45.978Z,6.95
2024-03-18T15:36:22.417Z,6.93
2024-03-18T15:38:59.315Z,6.89
2024-03-18T15:41:33.886Z,6.88
2024-03-18T15:44:07.860Z,6.84
2024-03-18T15:46:42.449Z,6.86
2024-03-18T15:49:18.501Z,6.82
2024-03-18T15:51:53.396Z,6.80
2024-03-18T15:54:28.376Z,6.80
2024-03-18T15:57:21.283Z,6.79
2024-03-18T16:00:13.162Z,6.79
2024-03-18T16:02:49.513Z,6.80
2024-03-18T16:05:24.506Z,6.76
2024-03-18T16:07:57.736Z,6.74
2024-03-18T16:10:33.412Z,6.70
2024-03-18T16:13:09.469Z,6.69
2024-03-18T16:15:44.674Z,6.66
2024-03-18T16:18:23.785Z,6.66
2024-03-18T16:21:01.934Z,6.64
2024-03-18T16:23:36.004Z,6.64
2024-03-18T16:26:10.141Z,6.62
2024-03-18T16:28:48.578Z,6.61
2024-03-18T16:31:22.304Z,6.60
2024-03-18T16:33:57.662Z,6.60
2024-03-18T16:36:36.606Z,6.59
2024-03-18T16:39:11.533Z,6.57
2024-03-18T16:41:46.059Z,6.58
2024-03-18T16:44:24.817Z,6.55
2024-03-18T16:47:03.193Z,6.56
2024-03-18T16:49:37.990Z,6.55
2024-03-18T16:52:17.679Z,6.55
2024-03-18T16:54:58.433Z,6.55
2024-03-18T16:57:34.677Z,6.54
2024-03-18T17:00:12.852Z,6.53
2024-03-18T17:02:46.097Z,6.54
2024-03-18T17:05:27.390Z,6.71
2024-03-18T17:08:01.897Z,6.52
2024-03-18T17:10:39.353Z,6.49
2024-03-18T17:13:15.837Z,6.48
2024-03-18T17:15:57.643Z,6.47
2024-03-18T17:18:32.588Z,6.47
2024-03-18T17:21:14.896Z,6.45
2024-03-18T17:23:52.856Z,6.43
2024-03-18T17:26:34.536Z,6.42
2024-03-18T17:29:18.832Z,6.40
2024-03-18T17:31:54.121Z,6.40
2024-03-18T17:34:47.109Z,6.39
2024-03-18T17:38:03.967Z,6.38
2024-03-18T17:40:01.060Z,6.38
2024-03-18T17:42:38.767Z,6.35
2024-03-18T17:45:13.717Z,6.33
2024-03-18T17:48:07.295Z,6.31
2024-03-18T17:50:45.325Z,6.30
2024-03-18T17:53:21.169Z,6.29
2024-03-18T17:55:57.868Z,6.28
2024-03-18T17:58:41.105Z,6.27
2024-03-18T18:01:35.657Z,6.26
2024-03-18T18:04:16.887Z,6.25
2024-03-18T18:06:53.288Z,6.24
2024-03-18T18:09:30.710Z,6.22
2024-03-18T18:12:10.792Z,6.21
2024-03-18T18:14:58.961Z,6.20
2024-03-18T18:17:41.956Z,6.18
2024-03-18T18:20:17.108Z,6.16
2024-03-18T18:22:53.052Z,6.15
2024-03-18T18:25:30.325Z,6.15
2024-03-18T18:28:22.637Z,6.12
2024-03-18T18:31:18.408Z,6.10
2024-03-18T18:33:57.690Z,6.07
2024-03-18T18:36:50.402Z,6.04
2024-03-18T18:39:30.438Z,6.00
2024-03-18T18:42:08.628Z,5.97
2024-03-18T18:44:46.940Z,5.94
2024-03-18T18:47:21.244Z,5.92
2024-03-18T18:49:57.126Z,5.90
2024-03-18T18:52:49.803Z,5.89
2024-03-18T18:55:28.641Z,5.87
2024-03-18T18:58:05.264Z,5.86
2024-03-18T19:00:40.898Z,5.84
2024-03-18T19:03:24.260Z,5.83
2024-03-18T19:06:03.239Z,5.82
2024-03-18T19:08:37.518Z,5.81
2024-03-18T19:11:14.679Z,5.79
2024-03-18T19:13:49.864Z,5.78
2024-03-18T19:16:24.652Z,5.77
2024-03-18T19:18:57.613Z,5.75
2024-03-18T19:21:39.571Z,5.73
2024-03-18T19:24:16.203Z,5.72
2024-03-18T19:26:51.219Z,5.67
2024-03-18T19:29:36.526Z,5.66
2024-03-18T19:32:19.906Z,5.64
2024-03-18T19:35:00.325Z,5.84
2024-03-18T19:37:33.814Z,5.68
2024-03-18T19:40:17.278Z,5.68
2024-03-18T19:43:04.499Z,5.64
2024-03-18T19:45:48.100Z,5.63
2024-03-18T19:48:32.161Z,5.62
2024-03-18T19:51:17.722Z,5.58
2024-03-18T19:53:53.246Z,5.58
2024-03-18T19:56:26.778Z,5.57
2024-03-18T19:59:16.359Z,5.59
2024-03-18T20:01:51.447Z,5.56
2024-03-18T20:04:45.832Z,5.57
2024-03-18T20:07:22.139Z,5.55
2024-03-18T20:09:55.725Z,5.56
2024-03-18T20:12:32.290Z,5.54
2024-03-18T20:15:08.257Z,5.55
2024-03-18T20:17:48.168Z,5.54
2024-03-18T20:20:26.205Z,5.54
2024-03-18T20:23:02.702Z,5.54
2024-03-18T20:25:40.521Z,5.54
2024-03-18T20:28:33.237Z,5.55
2024-03-18T20:31:11.509Z,5.54
2024-03-18T20:34:06.298Z,5.51
2024-03-18T20:36:40.710Z,5.51
2024-03-18T20:39:18.452Z,5.49
2024-03-18T20:41:58.377Z,5.49
2024-03-18T20:44:33.401Z,5.48
2024-03-18T20:47:09.226Z,5.48
2024-03-18T20:49:44.977Z,5.48
2024-03-18T20:52:19.532Z,5.48
2024-03-18T20:54:53.818Z,5.47
2024-03-18T20:57:27.147Z,5.47
2024-03-18T21:00:02.994Z,5.46
2024-03-18T21:02:35.395Z,5.46
2024-03-18T21:05:12.176Z,5.45
2024-03-18T21:07:51.186Z,5.45
2024-03-18T21:10:24.520Z,5.46
2024-03-18T21:12:58.007Z,5.44
2024-03-18T21:15:32.316Z,5.44
2024-03-18T21:18:09.508Z,5.42
2024-03-18T21:20:45.642Z,5.41
2024-03-18T21:23:21.812Z,5.42
2024-03-18T21:26:03.026Z,5.43
2024-03-18T21:28:46.705Z,5.42
2024-03-18T21:31:19.758Z,5.42
2024-03-18T21:33:53.199Z,5.40
2024-03-18T21:36:26.746Z,5.39
2024-03-18T21:39:01.053Z,5.36
2024-03-18T21:41:34.153Z,5.35
2024-03-18T21:44:10.089Z,5.34
2024-03-18T21:46:57.000Z,5.34
2024-03-18T21:49:46.887Z,5.31
2024-03-18T21:52:19.535Z,5.29
2024-03-18T21:54:54.756Z,5.29
2024-03-18T21:57:27.460Z,5.28
2024-03-18T22:00:00.230Z,5.27
2024-03-18T22:02:32.814Z,5.26
2024-03-18T22:05:05.895Z,5.26
2024-03-18T22:07:39.680Z,5.26
2024-03-18T22:10:12.170Z,5.26
2024-03-18T22:12:47.435Z,5.25
2024-03-18T22:15:19.747Z,5.23
2024-03-18T22:17:53.227Z,5.22
2024-03-18T22:20:28.182Z,5.20
2024-03-18T22:23:10.703Z,5.19
2024-03-18T22:25:44.929Z,5.20
2024-03-18T22:28:18.223Z,5.21
2024-03-18T22:30:53.722Z,5.19
2024-03-18T22:33:27.629Z,5.18
2024-03-18T22:36:00.767Z,5.19
2024-03-18T22:38:34.857Z,5.19
2024-03-18T22:41:08.292Z,5.17
2024-03-18T22:43:42.498Z,5.16
2024-03-18T22:46:16.986Z,5.15
2024-03-18T22:48:51.039Z,5.14
2024-03-18T22:51:23.638Z,5.14
2024-03-18T22:53:57.096Z,5.14
2024-03-18T22:56:29.459Z,5.13
2024-03-18T22:59:03.370Z,5.13
2024-03-18T23:01:36.707Z,5.13
2024-03-18T23:04:17.696Z,5.13
2024-03-18T23:06:51.240Z,5.13
2024-03-18T23:09:23.695Z,5.12
2024-03-18T23:11:56.785Z,5.11
2024-03-18T23:14:30.786Z,5.10
2024-03-18T23:17:03.593Z,5.10
2024-03-18T23:19:36.795Z,5.09
2024-03-18T23:22:09.461Z,5.06
2024-03-18T23:24:41.998Z,5.03
2024-03-18T23:27:16.013Z,5.00
2024-03-18T23:29:50.818Z,4.98
2024-03-18T23:32:23.574Z,4.96
2024-03-18T23:34:55.822Z,4.93
2024-03-18T23:37:28.191Z,4.91
2024-03-18T23:40:01.236Z,4.88
2024-03-18T23:42:35.959Z,4.85
2024-03-18T23:45:08.923Z,4.83
2024-03-18T23:47:42.394Z,4.81
2024-03-18T23:50:15.828Z,4.80
2024-03-18T23:52:47.710Z,4.99
2024-03-18T23:55:21.463Z,4.81
2024-03-18T23:57:55.474Z,4.78
